createdAt,value
2018-05-01T00:02:08.396Z,0.90
2018-05-01T00:04:35.820Z,0.90
2018-05-01T00:07:03.236Z,1.10
2018-05-01T00:09:30.759Z,1.30
2018-05-01T00:11:58.185Z,1.07
2018-05-01T00:14:25.604Z,1.40
2018-05-01T00:16:53.032Z,1.30
2018-05-01T00:19:20.460Z,1.33
2018-05-01T00:21:47.936Z,1.43
2018-05-01T00:24:15.360Z,2.00
2018-05-01T00:26:42.789Z,1.70
2018-05-01T00:29:10.306Z,1.50
2018-05-01T00:31:37.857Z,1.30
2018-05-01T00:34:05.267Z,1.90
2018-05-01T00:36:33.453Z,1.90
2018-05-01T00:39:01.682Z,2.03
2018-05-01T00:41:29.130Z,2.13
2018-05-01T00:43:56.571Z,1.80
2018-05-01T00:46:23.988Z,1.77
2018-05-01T00:48:52.176Z,1.97
2018-05-01T00:51:19.600Z,1.60
2018-05-01T00:53:47.027Z,1.40
2018-05-01T00:56:14.468Z,1.70
2018-05-01T00:58:41.901Z,1.40
2018-05-01T01:01:09.388Z,1.23
2018-05-01T01:03:36.812Z,1.20
2018-05-01T01:06:04.297Z,1.10
2018-05-01T01:08:31.748Z,1.33
2018-05-01T01:10:59.178Z,1.47
2018-05-01T01:13:26.663Z,1.90
2018-05-01T01:15:54.096Z,1.50
2018-05-01T01:18:21.525Z,1.97
2018-05-01T01:20:49.752Z,1.40
2018-05-01T01:23:17.204Z,1.13
2018-05-01T01:25:44.624Z,1.40
2018-05-01T01:28:12.116Z,1.43
2018-05-01T01:30:39.540Z,1.30
2018-05-01T01:33:07.028Z,1.47
2018-05-01T01:35:33.964Z,1.50
2018-05-01T01:38:00.916Z,1.63
2018-05-01T01:40:27.846Z,1.63
2018-05-01T01:42:54.780Z,1.60
2018-05-01T01:45:21.708Z,2.33
2018-05-01T01:47:49.409Z,1.90
2018-05-01T01:50:16.456Z,1.20
2018-05-01T01:52:43.504Z,1.70
2018-05-01T01:55:10.543Z,1.30
2018-05-01T01:57:37.596Z,1.50
2018-05-01T02:00:04.525Z,1.60
2018-05-01T02:02:31.466Z,1.33
2018-05-01T02:04:58.392Z,1.43
2018-05-01T02:07:25.363Z,1.00
2018-05-01T02:09:52.292Z,1.37
2018-05-01T02:12:19.264Z,1.23
2018-05-01T02:14:46.196Z,1.33
2018-05-01T02:17:13.130Z,1.40
2018-05-01T02:19:40.057Z,1.40
2018-05-01T02:22:07.028Z,1.33
2018-05-01T02:24:33.962Z,1.17
2018-05-01T02:27:00.896Z,1.60
2018-05-01T02:29:27.827Z,1.80
2018-05-01T02:31:55.521Z,1.73
2018-05-01T02:34:22.460Z,1.97
2018-05-01T02:36:49.414Z,1.43
2018-05-01T02:39:16.432Z,1.53
2018-05-01T02:41:43.369Z,1.80
2018-05-01T02:44:10.300Z,1.77
2018-05-01T02:46:37.994Z,2.13
2018-05-01T02:49:04.938Z,1.77
2018-05-01T02:51:31.869Z,1.90
2018-05-01T02:53:58.805Z,2.07
2018-05-01T02:56:25.736Z,1.80
2018-05-01T02:58:53.551Z,2.10
2018-05-01T03:01:20.481Z,1.83
2018-05-01T03:03:47.408Z,1.57
2018-05-01T03:06:14.371Z,2.20
2018-05-01T03:08:41.423Z,2.00
2018-05-01T03:11:08.373Z,1.70
2018-05-01T03:13:35.304Z,2.37
2018-05-01T03:16:02.257Z,2.80
2018-05-01T03:18:29.301Z,1.93
2018-05-01T03:20:56.249Z,2.70
2018-05-01T03:23:23.184Z,2.13
2018-05-01T03:25:50.200Z,1.53
2018-05-01T03:28:17.191Z,1.67
2018-05-01T03:30:44.220Z,1.67
2018-05-01T03:33:11.168Z,1.73
2018-05-01T03:35:38.236Z,1.20
2018-05-01T03:38:05.172Z,1.50
2018-05-01T03:40:32.208Z,2.10
2018-05-01T03:42:59.136Z,2.10
2018-05-01T03:45:26.070Z,2.90
2018-05-01T03:47:52.995Z,2.53
2018-05-01T03:50:20.700Z,1.87
2018-05-01T03:52:47.739Z,1.97
2018-05-01T03:55:14.680Z,2.23
2018-05-01T03:57:41.628Z,2.50
2018-05-01T04:00:08.678Z,1.70
2018-05-01T04:02:35.625Z,2.83
2018-05-01T04:05:02.564Z,2.60
2018-05-01T04:07:30.310Z,1.90
2018-05-01T04:09:57.243Z,2.33
2018-05-01T04:12:24.168Z,2.20
2018-05-01T04:14:51.872Z,2.50
2018-05-01T04:17:18.821Z,1.93
2018-05-01T04:19:45.759Z,2.40
2018-05-01T04:22:12.764Z,2.80
2018-05-01T04:24:40.568Z,3.13
2018-05-01T04:27:07.615Z,3.60
2018-05-01T04:29:34.565Z,3.90
2018-05-01T04:32:01.609Z,3.40
2018-05-01T04:34:28.552Z,3.70
2018-05-01T04:36:55.595Z,3.23
2018-05-01T04:39:22.532Z,4.67
2018-05-01T04:41:49.464Z,3.00
2018-05-01T04:44:16.436Z,3.90
2018-05-01T04:46:43.427Z,4.27
2018-05-01T04:49:11.141Z,4.17
2018-05-01T04:51:38.182Z,3.20
2018-05-01T04:54:05.115Z,3.37
2018-05-01T04:56:32.176Z,3.73
2018-05-01T04:58:59.108Z,4.50
2018-05-01T05:01:26.049Z,3.40
2018-05-01T05:03:52.975Z,5.10
2018-05-01T05:06:19.912Z,4.53
2018-05-01T05:08:46.842Z,4.17
2018-05-01T05:11:14.558Z,3.70
2018-05-01T05:13:41.600Z,2.80
2018-05-01T05:16:08.543Z,3.60
2018-05-01T05:18:36.443Z,3.70
2018-05-01T05:21:03.356Z,3.50
2018-05-01T05:23:30.294Z,3.90
2018-05-01T05:25:57.231Z,3.30
2018-05-01T05:28:24.164Z,4.30
2018-05-01T05:30:51.124Z,4.10
2018-05-01T05:33:18.172Z,3.93
2018-05-01T05:35:45.102Z,4.13
2018-05-01T05:38:12.065Z,4.60
2018-05-01T05:40:38.989Z,4.07
2018-05-01T05:43:05.930Z,4.40
2018-05-01T05:45:32.897Z,4.30
2018-05-01T05:47:59.828Z,5.13
2018-05-01T05:50:26.784Z,4.13
2018-05-01T05:52:53.728Z,5.10
2018-05-01T05:55:20.667Z,5.53
2018-05-01T05:57:47.601Z,5.60
2018-05-01T06:00:14.538Z,5.80
2018-05-01T06:02:41.468Z,6.00
2018-05-01T06:05:08.441Z,7.40
2018-05-01T06:07:35.388Z,7.10
2018-05-01T06:10:02.327Z,7.60
2018-05-01T06:12:29.264Z,7.63
2018-05-01T06:14:56.221Z,8.60
2018-05-01T06:17:23.153Z,8.70
2018-05-01T06:19:50.113Z,7.30
2018-05-01T06:22:17.056Z,8.80
2018-05-01T06:24:43.999Z,8.17
2018-05-01T06:27:10.945Z,7.73
2018-05-01T06:29:37.885Z,7.57
2018-05-01T06:32:04.834Z,10.33
2018-05-01T06:34:31.768Z,9.60
2018-05-01T06:36:58.735Z,9.10
2018-05-01T06:39:25.764Z,11.33
2018-05-01T06:41:52.807Z,9.30
2018-05-01T06:44:19.852Z,7.57
2018-05-01T06:46:46.785Z,9.80
2018-05-01T06:49:13.750Z,10.70
2018-05-01T06:51:40.683Z,9.43
2018-05-01T06:54:07.736Z,10.93
2018-05-01T06:56:34.780Z,10.13
2018-05-01T06:59:01.725Z,9.23
2018-05-01T07:01:28.680Z,11.40
2018-05-01T07:03:55.609Z,9.47
2018-05-01T07:06:22.542Z,10.60
2018-05-01T07:08:49.606Z,11.63
2018-05-01T07:11:16.546Z,9.17
2018-05-01T07:13:43.597Z,10.03
2018-05-01T07:16:10.536Z,7.97
2018-05-01T07:18:37.580Z,8.67
2018-05-01T07:21:04.625Z,8.80
2018-05-01T07:23:31.558Z,8.73
2018-05-01T07:25:58.520Z,8.63
2018-05-01T07:28:25.547Z,7.87
2018-05-01T07:30:52.505Z,6.77
2018-05-01T07:33:19.452Z,8.33
2018-05-01T07:35:46.474Z,6.30
2018-05-01T07:38:13.404Z,8.87
2018-05-01T07:40:40.344Z,8.43
2018-05-01T07:43:07.285Z,9.30
2018-05-01T07:45:34.981Z,9.83
2018-05-01T07:48:01.921Z,9.57
2018-05-01T07:50:28.862Z,8.20
2018-05-01T07:52:55.799Z,9.80
2018-05-01T07:55:22.740Z,10.00
2018-05-01T07:57:49.724Z,9.80
2018-05-01T08:00:16.775Z,10.17
2018-05-01T08:02:43.804Z,8.03
2018-05-01T08:05:10.741Z,8.77
2018-05-01T08:07:37.687Z,9.60
2018-05-01T08:10:04.633Z,9.20
2018-05-01T08:12:31.624Z,9.90
2018-05-01T08:14:59.331Z,8.73
2018-05-01T08:17:26.288Z,8.60
2018-05-01T08:19:53.233Z,8.30
2018-05-01T08:22:20.275Z,8.23
2018-05-01T08:24:47.215Z,8.27
2018-05-01T08:27:14.164Z,9.03
2018-05-01T08:29:41.100Z,7.10
2018-05-01T08:32:08.051Z,8.33
2018-05-01T08:34:35.098Z,7.13
2018-05-01T08:37:02.033Z,6.43
2018-05-01T08:39:28.965Z,7.60
2018-05-01T08:41:55.900Z,7.60
2018-05-01T08:44:22.869Z,6.70
2018-05-01T08:46:49.796Z,6.50
2018-05-01T08:49:16.741Z,6.20
2018-05-01T08:51:43.700Z,7.60
2018-05-01T08:54:10.739Z,6.23
2018-05-01T08:56:37.697Z,6.90
2018-05-01T08:59:04.742Z,6.73
2018-05-01T09:01:31.784Z,6.47
2018-05-01T09:03:58.824Z,6.53
2018-05-01T09:06:25.781Z,5.00
2018-05-01T09:08:52.828Z,6.17
2018-05-01T09:11:19.792Z,6.33
2018-05-01T09:13:46.730Z,5.87
2018-05-01T09:16:13.756Z,6.20
2018-05-01T09:18:40.804Z,6.57
2018-05-01T09:21:07.852Z,6.60
2018-05-01T09:23:34.813Z,6.37
2018-05-01T09:26:01.740Z,6.50
2018-05-01T09:28:28.688Z,5.77
2018-05-01T09:30:55.628Z,6.03
2018-05-01T09:33:22.676Z,6.17
2018-05-01T09:35:49.656Z,7.03
2018-05-01T09:38:16.593Z,7.20
2018-05-01T09:40:45.088Z,6.23
2018-05-01T09:43:12.913Z,7.70
2018-05-01T09:45:39.948Z,5.63
2018-05-01T09:48:07.001Z,6.40
2018-05-01T09:50:33.947Z,6.10
2018-05-01T09:53:01.402Z,5.77
2018-05-01T09:55:28.839Z,6.30
2018-05-01T09:57:56.320Z,6.33
2018-05-01T10:00:24.539Z,4.53
2018-05-01T10:02:52.736Z,4.53
2018-05-01T10:05:20.172Z,4.60
2018-05-01T10:07:48.384Z,4.00
2018-05-01T10:10:15.815Z,4.30
2018-05-01T10:12:44.518Z,5.10
2018-05-01T10:15:11.942Z,4.00
2018-05-01T10:17:40.156Z,3.50
2018-05-01T10:20:07.613Z,3.03
2018-05-01T10:22:35.085Z,4.00
2018-05-01T10:25:02.515Z,3.33
2018-05-01T10:27:29.941Z,3.00
2018-05-01T10:29:57.436Z,4.20
2018-05-01T10:32:24.888Z,3.90
2018-05-01T10:34:52.393Z,3.67
2018-05-01T10:37:20.584Z,3.30
2018-05-01T10:39:48.077Z,3.47
2018-05-01T10:42:15.520Z,2.40
2018-05-01T10:44:43.003Z,3.30
2018-05-01T10:47:10.444Z,3.10
2018-05-01T10:49:37.883Z,2.53
2018-05-01T10:52:05.305Z,4.20
2018-05-01T10:54:32.792Z,3.50
2018-05-01T10:57:00.150Z,3.70
2018-05-01T10:59:27.581Z,4.17
2018-05-01T11:01:55.764Z,3.93
2018-05-01T11:04:23.250Z,4.23
2018-05-01T11:06:50.728Z,3.37
2018-05-01T11:09:18.268Z,4.00
2018-05-01T11:11:45.725Z,4.70
2018-05-01T11:14:13.177Z,4.03
2018-05-01T11:16:40.616Z,5.50
2018-05-01T11:19:08.085Z,4.53
2018-05-01T11:21:35.517Z,3.83
2018-05-01T11:24:02.952Z,4.43
2018-05-01T11:26:31.143Z,4.27
2018-05-01T11:28:58.572Z,4.57
2018-05-01T11:31:26.808Z,3.90
2018-05-01T11:33:54.261Z,4.20
2018-05-01T11:36:21.698Z,4.17
2018-05-01T11:38:49.178Z,3.53
2018-05-01T11:41:16.602Z,3.57
2018-05-01T11:43:44.087Z,4.27
2018-05-01T11:46:11.522Z,5.00
2018-05-01T11:48:38.944Z,4.27
2018-05-01T11:51:07.188Z,3.43
2018-05-01T11:53:34.724Z,4.40
2018-05-01T13:17:25.143Z,3.30
2018-05-01T13:19:54.508Z,3.27
2018-05-01T13:22:24.509Z,3.20
2018-05-01T13:24:53.885Z,3.20
2018-05-01T13:32:09.924Z,2.60
2018-05-01T13:34:39.155Z,3.13
2018-05-01T13:37:08.463Z,2.70
2018-05-01T14:06:21.155Z,4.07
2018-05-01T14:08:50.424Z,1.40
2018-05-01T14:14:38.851Z,1.20
2018-05-01T14:17:08.084Z,1.20
2018-05-01T14:28:24.966Z,2.10
2018-05-01T14:30:54.254Z,2.87
2018-05-01T14:33:23.552Z,1.50
2018-05-01T14:35:52.784Z,1.87
2018-05-01T14:38:22.059Z,1.60
2018-05-01T14:40:51.369Z,2.37
2018-05-01T15:14:13.379Z,1.17
